createdAt,value
2019-02-17T00:01:12.497Z,40.19
2019-02-17T00:03:41.686Z,39.93
2019-02-17T00:06:10.916Z,39.81
2019-02-17T00:08:40.835Z,39.62
2019-02-17T00:11:10.102Z,40.02
2019-02-17T00:13:39.281Z,40.32
2019-02-17T00:16:27.596Z,40.25
2019-02-17T00:18:56.791Z,40.30
2019-02-17T00:21:25.963Z,39.72
2019-02-17T00:23:55.190Z,39.18
2019-02-17T00:26:24.375Z,39.26
2019-02-17T00:28:59.598Z,39.53
2019-02-17T00:31:24.505Z,40.55
2019-02-17T00:33:53.742Z,41.43
2019-02-17T00:36:22.923Z,40.98
2019-02-17T00:38:52.158Z,41.23
2019-02-17T00:41:21.345Z,42.22
2019-02-17T00:43:50.579Z,41.13
2019-02-17T00:46:19.766Z,40.83
2019-02-17T00:51:43.823Z,40.48
2019-02-17T00:54:14.585Z,40.95
2019-02-17T00:56:43.820Z,40.31
2019-02-17T00:59:13.007Z,41.22
2019-02-17T01:01:42.251Z,41.03
2019-02-17T01:04:11.457Z,40.72
2019-02-17T01:06:40.700Z,41.12
2019-02-17T01:09:09.889Z,41.08
2019-02-17T01:11:39.138Z,41.34
2019-02-17T01:14:08.316Z,41.41
2019-02-17T01:16:37.559Z,41.58
2019-02-17T01:19:07.121Z,43.42
2019-02-17T01:21:36.370Z,42.16
2019-02-17T01:24:05.580Z,42.45
2019-02-17T01:26:34.826Z,42.89
2019-02-17T01:29:04.023Z,43.46
2019-02-17T01:31:33.278Z,43.96
2019-02-17T01:34:47.342Z,43.13
2019-02-17T01:37:16.957Z,43.14
2019-02-17T01:39:53.180Z,43.65
2019-02-17T01:42:41.410Z,43.71
2019-02-17T01:45:10.601Z,44.26
2019-02-17T01:47:40.172Z,43.97
2019-02-17T01:52:57.782Z,44.66
2019-02-17T01:55:26.963Z,45.58
2019-02-17T01:57:56.202Z,44.83
2019-02-17T02:00:25.385Z,44.54
2019-02-17T02:02:54.637Z,45.52
2019-02-17T02:05:23.837Z,44.58
2019-02-17T02:07:53.031Z,44.99
2019-02-17T02:10:22.613Z,44.36
2019-02-17T02:12:51.801Z,44.40
2019-02-17T02:15:21.045Z,44.53
2019-02-17T02:17:50.233Z,44.97
2019-02-17T02:20:19.482Z,45.33
2019-02-17T02:22:49.008Z,46.11
2019-02-17T02:25:18.255Z,45.52
2019-02-17T02:27:47.435Z,45.95
2019-02-17T02:30:16.686Z,45.46
2019-02-17T02:32:46.204Z,45.45
2019-02-17T02:35:15.450Z,45.17
2019-02-17T02:37:44.637Z,44.55
2019-02-17T02:40:13.902Z,44.68
2019-02-17T02:42:43.081Z,44.34
2019-02-17T02:45:12.385Z,45.10
2019-02-17T02:47:41.626Z,44.63
2019-02-17T02:50:30.363Z,44.62
2019-02-17T02:52:59.960Z,44.20
2019-02-17T02:55:29.145Z,44.37
2019-02-17T02:57:58.385Z,45.07
2019-02-17T03:00:27.582Z,44.74
2019-02-17T03:02:57.175Z,45.85
2019-02-17T03:05:26.357Z,46.41
2019-02-17T03:07:55.600Z,44.95
2019-02-17T03:10:24.795Z,44.89
2019-02-17T03:12:54.457Z,45.01
2019-02-17T03:15:23.646Z,44.98
2019-02-17T03:17:52.981Z,44.30
2019-02-17T03:20:22.159Z,44.47
2019-02-17T03:22:51.340Z,44.23
2019-02-17T03:25:20.584Z,44.41
2019-02-17T03:27:49.785Z,44.10
2019-02-17T03:30:19.361Z,44.77
2019-02-17T03:32:48.554Z,43.40
2019-02-17T03:35:17.791Z,43.18
2019-02-17T03:37:46.987Z,43.86
2019-02-17T03:40:16.225Z,42.39
2019-02-17T03:42:45.409Z,43.16
2019-02-17T03:45:14.640Z,42.15
2019-02-17T03:47:43.957Z,42.71
2019-02-17T03:50:13.203Z,43.78
2019-02-17T03:52:42.438Z,43.67
2019-02-17T03:55:11.623Z,43.76
2019-02-17T03:57:40.872Z,44.24
2019-02-17T04:00:22.444Z,44.16
2019-02-17T04:02:51.200Z,43.83
2019-02-17T04:05:20.380Z,44.74
2019-02-17T04:07:49.619Z,44.29
2019-02-17T04:10:18.796Z,44.32
2019-02-17T04:12:48.039Z,44.64
2019-02-17T04:15:17.214Z,44.69
2019-02-17T04:17:46.454Z,45.08
2019-02-17T04:20:15.623Z,44.17
2019-02-17T04:22:44.816Z,45.35
2019-02-17T04:25:14.048Z,44.76
2019-02-17T04:27:43.221Z,43.67
2019-02-17T04:30:12.462Z,43.77
2019-02-17T04:32:41.637Z,42.48
2019-02-17T04:35:10.890Z,42.32
2019-02-17T04:37:40.090Z,42.13
2019-02-17T04:40:09.331Z,43.28
2019-02-17T04:42:38.527Z,42.29
2019-02-17T04:45:07.808Z,42.67
2019-02-17T04:47:36.986Z,41.89
2019-02-17T04:50:06.682Z,41.50
2019-02-17T04:52:35.913Z,41.85
2019-02-17T04:55:05.486Z,41.88
2019-02-17T04:57:34.671Z,41.87
2019-02-17T05:00:04.069Z,41.97
2019-02-17T05:02:33.238Z,42.16
2019-02-17T05:05:02.403Z,41.88
2019-02-17T05:07:31.626Z,42.66
2019-02-17T05:10:00.813Z,41.57
2019-02-17T05:12:30.044Z,41.96
2019-02-17T05:14:59.227Z,42.09
2019-02-17T05:17:28.456Z,42.04
2019-02-17T05:19:57.622Z,41.89
2019-02-17T05:22:26.905Z,41.99
2019-02-17T05:24:56.073Z,41.79
2019-02-17T05:27:25.343Z,42.09
2019-02-17T05:29:54.566Z,43.19
2019-02-17T05:32:24.063Z,42.64
2019-02-17T05:34:53.290Z,42.45
2019-02-17T05:37:22.466Z,42.47
2019-02-17T05:39:51.712Z,42.54
2019-02-17T05:42:20.901Z,42.29
2019-02-17T05:44:50.136Z,42.86
2019-02-17T05:47:19.315Z,42.02
2019-02-17T05:49:48.540Z,41.77
2019-02-17T05:52:17.771Z,41.95
2019-02-17T05:54:47.021Z,42.04
2019-02-17T05:57:16.308Z,41.71
2019-02-17T05:59:45.478Z,41.80
2019-02-17T06:02:15.049Z,41.88
2019-02-17T06:04:44.546Z,41.94
2019-02-17T06:07:13.786Z,42.02
2019-02-17T06:09:42.967Z,41.99
2019-02-17T06:12:12.190Z,42.19
2019-02-17T06:14:41.364Z,42.19
2019-02-17T06:17:10.952Z,42.34
2019-02-17T06:19:40.135Z,42.30
2019-02-17T06:22:09.551Z,42.18
2019-02-17T06:24:38.739Z,42.44
2019-02-17T06:27:07.968Z,42.67
2019-02-17T06:29:37.137Z,42.34
2019-02-17T06:32:06.380Z,42.82
2019-02-17T06:34:35.563Z,42.30
2019-02-17T06:37:04.794Z,42.60
2019-02-17T06:39:34.342Z,42.11
2019-02-17T06:42:03.961Z,41.95
2019-02-17T06:44:33.521Z,41.89
2019-02-17T06:49:53.868Z,42.72
2019-02-17T06:52:23.098Z,42.45
2019-02-17T06:55:11.267Z,41.99
2019-02-17T06:57:41.547Z,41.68
2019-02-17T07:00:30.144Z,41.78
2019-02-17T07:02:59.736Z,41.37
2019-02-17T07:05:47.924Z,41.30
2019-02-17T07:08:17.499Z,41.00
2019-02-17T07:10:47.044Z,41.36
2019-02-17T07:13:16.222Z,42.72
2019-02-17T07:15:45.747Z,42.13
2019-02-17T07:18:14.986Z,40.64
2019-02-17T07:20:44.237Z,41.30
2019-02-17T07:23:15.219Z,39.99
2019-02-17T07:25:44.396Z,39.46
2019-02-17T07:28:13.566Z,39.63
2019-02-17T07:30:42.809Z,39.82
2019-02-17T07:33:11.996Z,39.41
2019-02-17T07:35:41.231Z,39.58
2019-02-17T07:38:10.405Z,39.62
2019-02-17T07:40:39.585Z,39.32
2019-02-17T07:43:08.829Z,38.95
2019-02-17T07:45:38.681Z,39.14
2019-02-17T07:48:07.912Z,39.12
2019-02-17T07:50:37.423Z,38.39
2019-02-17T07:53:06.656Z,38.13
2019-02-17T07:55:35.847Z,38.24
2019-02-17T07:58:05.103Z,38.08
2019-02-17T08:00:34.294Z,37.85
2019-02-17T08:03:03.526Z,37.60
2019-02-17T08:05:32.705Z,37.42
2019-02-17T08:08:01.888Z,37.08
2019-02-17T08:10:31.119Z,36.95
2019-02-17T08:13:00.293Z,36.81
2019-02-17T08:15:29.535Z,36.34
2019-02-17T08:17:58.714Z,35.97
2019-02-17T08:20:27.947Z,36.17
2019-02-17T08:22:57.120Z,36.05
2019-02-17T08:25:26.349Z,35.86
2019-02-17T08:27:55.524Z,35.89
2019-02-17T08:30:24.775Z,35.53
2019-02-17T08:32:53.971Z,35.18
2019-02-17T08:35:23.196Z,34.70
2019-02-17T08:37:52.388Z,33.94
2019-02-17T08:40:21.566Z,33.58
2019-02-17T08:42:50.809Z,34.29
2019-02-17T08:45:19.984Z,33.70
2019-02-17T08:47:49.218Z,33.70
2019-02-17T08:50:20.047Z,33.16
2019-02-17T08:52:49.425Z,32.98
2019-02-17T08:55:18.964Z,32.43
2019-02-17T08:57:48.199Z,32.34
2019-02-17T09:00:17.380Z,31.06
2019-02-17T09:02:46.611Z,30.87
2019-02-17T09:05:15.812Z,31.68
2019-02-17T09:07:45.393Z,30.65
2019-02-17T09:10:53.948Z,31.12
2019-02-17T09:13:23.314Z,30.55
2019-02-17T09:15:52.490Z,29.35
2019-02-17T09:18:22.136Z,29.29
2019-02-17T09:20:51.330Z,29.94
2019-02-17T09:23:20.904Z,29.46
2019-02-17T09:25:50.495Z,29.41
2019-02-17T09:28:19.856Z,28.67
2019-02-17T09:30:49.216Z,29.03
2019-02-17T09:33:18.385Z,29.23
2019-02-17T09:35:47.619Z,28.70
2019-02-17T09:38:17.254Z,28.56
2019-02-17T09:40:48.119Z,28.62
2019-02-17T09:43:18.764Z,30.08
2019-02-17T09:45:48.023Z,29.39
2019-02-17T09:48:17.553Z,29.08
2019-02-17T09:50:47.242Z,28.72
2019-02-17T09:53:16.422Z,28.75
2019-02-17T09:55:46.008Z,28.69
2019-02-17T09:58:15.190Z,28.62
2019-02-17T10:00:44.472Z,28.45
2019-02-17T10:03:14.005Z,28.46
2019-02-17T10:05:43.192Z,28.64
2019-02-17T10:08:12.424Z,28.90
2019-02-17T10:10:41.602Z,28.64
2019-02-17T10:13:11.116Z,28.20
2019-02-17T10:15:40.300Z,28.14
2019-02-17T10:18:09.545Z,28.29
2019-02-17T10:20:38.749Z,27.99
2019-02-17T10:23:08.009Z,28.09
2019-02-17T10:25:37.219Z,27.25
2019-02-17T10:28:06.800Z,27.69
2019-02-17T10:30:35.991Z,27.86
2019-02-17T10:33:05.230Z,27.27
2019-02-17T10:35:34.423Z,27.25
2019-02-17T10:38:03.708Z,27.43
2019-02-17T10:40:32.915Z,27.09
2019-02-17T10:43:03.644Z,26.89
2019-02-17T10:45:33.106Z,26.84
2019-02-17T10:48:02.291Z,26.33
2019-02-17T10:50:31.596Z,26.43
2019-02-17T10:53:00.794Z,26.39
2019-02-17T10:55:30.045Z,26.37
2019-02-17T10:58:00.041Z,25.72
2019-02-17T11:00:30.532Z,25.91
2019-02-17T11:03:06.231Z,25.77
2019-02-17T11:05:35.526Z,25.38
2019-02-17T11:08:04.710Z,25.63
2019-02-17T11:10:33.924Z,24.74
2019-02-17T11:13:03.177Z,24.61
2019-02-17T11:15:32.370Z,24.03
2019-02-17T11:18:01.956Z,24.96
2019-02-17T11:20:31.475Z,24.15
2019-02-17T11:23:00.717Z,22.64
2019-02-17T11:25:29.923Z,23.28
2019-02-17T11:27:59.524Z,23.46
2019-02-17T11:30:28.721Z,23.52
2019-02-17T11:32:58.420Z,23.43
2019-02-17T11:35:29.880Z,23.75
2019-02-17T11:37:59.998Z,23.63
2019-02-17T11:40:29.195Z,24.97
2019-02-17T11:42:58.467Z,24.39
2019-02-17T11:48:36.749Z,24.39
2019-02-17T11:51:05.994Z,23.83
2019-02-17T11:53:35.632Z,23.65
2019-02-17T11:56:05.138Z,24.31
2019-02-17T11:58:34.333Z,23.71
2019-02-17T12:01:05.255Z,23.47
2019-02-17T12:03:34.896Z,23.14
2019-02-17T12:06:04.153Z,23.25
2019-02-17T12:08:33.831Z,22.93
2019-02-17T12:11:03.108Z,23.40
2019-02-17T12:13:32.400Z,23.23
2019-02-17T12:16:01.745Z,23.59
2019-02-17T12:18:30.952Z,23.25
2019-02-17T12:21:19.472Z,23.17
2019-02-17T12:24:07.639Z,22.43
2019-02-17T12:26:46.085Z,22.46
2019-02-17T12:29:21.666Z,22.89
2019-02-17T12:31:50.928Z,22.89
2019-02-17T12:34:20.120Z,22.66
2019-02-17T12:36:49.336Z,22.71
2019-02-17T12:39:18.582Z,22.97
2019-02-17T12:41:47.767Z,21.94
2019-02-17T12:44:17.077Z,21.99
2019-02-17T12:46:46.280Z,22.28
2019-02-17T12:49:15.516Z,22.30
2019-02-17T12:51:44.741Z,21.77
2019-02-17T12:54:13.982Z,22.47
2019-02-17T12:56:43.184Z,22.46
2019-02-17T12:59:12.440Z,22.09
2019-02-17T13:01:41.625Z,21.90
2019-02-17T13:04:10.811Z,22.22
2019-02-17T13:06:40.129Z,22.78
2019-02-17T13:09:09.636Z,22.02
2019-02-17T13:11:39.154Z,22.10
2019-02-17T13:14:08.348Z,21.61
2019-02-17T13:16:37.611Z,21.17
2019-02-17T13:19:06.798Z,22.56
2019-02-17T13:21:36.445Z,22.07
2019-02-17T13:24:05.634Z,22.47
2019-02-17T13:26:34.879Z,24.28
2019-02-17T13:29:04.076Z,22.62
2019-02-17T13:31:33.343Z,23.36
2019-02-17T13:34:02.543Z,25.25
2019-02-17T13:36:31.750Z,30.02
2019-02-17T13:39:01.000Z,25.34
2019-02-17T13:41:30.199Z,25.26
2019-02-17T13:43:59.877Z,25.16
2019-02-17T13:46:29.067Z,26.27
2019-02-17T13:48:58.313Z,24.02
2019-02-17T13:54:15.807Z,26.57
2019-02-17T13:56:45.003Z,27.46
2019-02-17T13:59:14.241Z,27.92
2019-02-17T14:01:43.434Z,23.99
2019-02-17T14:04:12.677Z,22.02
2019-02-17T14:06:41.878Z,22.94
2019-02-17T14:09:11.464Z,24.01
2019-02-17T14:11:41.073Z,23.54
2019-02-17T14:14:10.281Z,23.26
2019-02-17T14:16:39.523Z,23.17
2019-02-17T14:19:08.821Z,23.84
2019-02-17T14:24:12.953Z,22.65
2019-02-17T14:26:42.218Z,23.41
2019-02-17T14:29:30.549Z,23.00
2019-02-17T14:32:00.210Z,22.79
2019-02-17T14:34:29.421Z,22.25
2019-02-17T14:39:52.029Z,20.81
2019-02-17T14:42:21.219Z,20.24
2019-02-17T14:45:09.733Z,19.83
2019-02-17T14:47:38.933Z,19.14
2019-02-17T14:50:48.039Z,18.88
2019-02-17T14:53:17.699Z,18.38
2019-02-17T14:55:46.886Z,17.94
2019-02-17T14:58:16.439Z,17.40
2019-02-17T15:00:45.671Z,16.66
2019-02-17T15:03:14.895Z,15.69
2019-02-17T15:05:44.180Z,15.10
2019-02-17T15:08:13.369Z,14.25
2019-02-17T15:10:42.611Z,13.33
2019-02-17T15:13:11.804Z,12.88
2019-02-17T15:15:41.038Z,13.19
2019-02-17T15:18:10.220Z,12.65
2019-02-17T15:20:39.811Z,11.92
2019-02-17T15:23:08.995Z,12.07
2019-02-17T15:25:38.291Z,11.94
2019-02-17T15:28:07.492Z,11.26
2019-02-17T15:30:36.778Z,9.49
2019-02-17T15:33:05.958Z,8.79
2019-02-17T15:35:35.196Z,8.60
2019-02-17T15:38:04.456Z,9.75
2019-02-17T15:40:33.675Z,8.45
2019-02-17T15:43:02.937Z,9.24
2019-02-17T15:45:32.120Z,8.74
2019-02-17T15:48:01.354Z,10.27
2019-02-17T15:50:30.602Z,12.30
2019-02-17T15:52:59.856Z,14.35
2019-02-17T15:55:29.068Z,16.16
2019-02-17T15:57:58.235Z,17.42
2019-02-17T16:00:27.871Z,18.38
2019-02-17T16:02:57.090Z,19.09
2019-02-17T16:08:01.821Z,20.21
2019-02-17T16:10:31.094Z,21.26
2019-02-17T16:13:00.290Z,21.67
2019-02-17T16:15:29.522Z,22.40
2019-02-17T16:17:59.118Z,22.80
2019-02-17T16:20:28.398Z,23.10
2019-02-17T16:22:57.554Z,23.65
2019-02-17T16:25:26.845Z,23.90
2019-02-17T16:27:56.040Z,24.44
2019-02-17T16:30:25.251Z,24.73
2019-02-17T16:32:54.519Z,25.33
2019-02-17T16:35:23.717Z,25.83
2019-02-17T16:37:53.035Z,26.16
2019-02-17T16:40:22.227Z,26.21
2019-02-17T16:42:51.834Z,26.54
2019-02-17T16:45:21.030Z,26.30
2019-02-17T16:47:50.268Z,26.20
2019-02-17T16:50:20.233Z,26.46
2019-02-17T16:52:49.471Z,26.95
2019-02-17T16:55:18.773Z,27.52
2019-02-17T16:57:48.035Z,27.51
2019-02-17T17:00:56.784Z,27.89
2019-02-17T17:03:26.031Z,27.63
2019-02-17T17:05:55.220Z,27.73
2019-02-17T17:08:24.487Z,28.05
2019-02-17T17:10:54.048Z,28.24
2019-02-17T17:13:23.371Z,28.58
2019-02-17T17:15:52.835Z,28.68
2019-02-17T17:18:22.007Z,28.78
2019-02-17T17:20:51.236Z,29.28
2019-02-17T17:23:20.490Z,29.21
2019-02-17T17:25:49.744Z,28.91
2019-02-17T17:28:19.016Z,29.30
2019-02-17T17:30:48.265Z,29.35
2019-02-17T17:33:17.443Z,29.52
2019-02-17T17:35:46.676Z,29.69
2019-02-17T17:38:15.855Z,29.75
2019-02-17T17:40:45.095Z,29.99
2019-02-17T17:43:14.295Z,30.34
2019-02-17T17:45:43.549Z,30.28
2019-02-17T17:48:12.729Z,30.23
2019-02-17T17:50:41.978Z,30.39
2019-02-17T17:53:11.299Z,30.98
2019-02-17T17:55:40.936Z,31.07
2019-02-17T17:58:10.167Z,31.23
2019-02-17T18:00:39.361Z,31.54
2019-02-17T18:03:08.586Z,31.73
2019-02-17T18:05:37.779Z,31.85
2019-02-17T18:08:07.039Z,32.00
2019-02-17T18:10:36.246Z,32.09
2019-02-17T18:13:05.491Z,31.65
2019-02-17T18:15:34.682Z,31.69
2019-02-17T18:18:03.976Z,32.03
2019-02-17T18:23:21.375Z,32.26
2019-02-17T18:25:50.582Z,31.74
2019-02-17T18:28:19.837Z,31.71
2019-02-17T18:30:49.011Z,31.48
2019-02-17T18:33:18.189Z,31.18
2019-02-17T18:35:47.424Z,31.22
2019-02-17T18:38:16.613Z,31.71
2019-02-17T18:40:47.843Z,31.87
2019-02-17T18:43:16.773Z,32.07
2019-02-17T18:45:46.027Z,32.05
2019-02-17T18:48:15.212Z,31.82
2019-02-17T18:50:44.527Z,31.84
2019-02-17T18:53:15.454Z,31.58
2019-02-17T18:55:45.814Z,31.52
2019-02-17T18:58:15.004Z,31.87
2019-02-17T19:00:44.315Z,31.92
2019-02-17T19:03:13.509Z,32.02
2019-02-17T19:08:17.396Z,32.39
2019-02-17T19:10:46.681Z,32.49
2019-02-17T19:13:15.918Z,32.34
2019-02-17T19:15:45.187Z,32.15
2019-02-17T19:18:14.366Z,32.16
2019-02-17T19:23:18.183Z,32.80
2019-02-17T19:25:47.429Z,32.57
2019-02-17T19:28:16.673Z,33.22
2019-02-17T19:30:46.016Z,32.83
2019-02-17T19:33:15.331Z,33.14
2019-02-17T19:35:45.323Z,33.05
2019-02-17T19:38:14.571Z,32.99
2019-02-17T19:40:43.831Z,32.48
2019-02-17T19:43:13.094Z,32.54
2019-02-17T19:45:42.595Z,32.31
2019-02-17T19:48:11.856Z,32.38
2019-02-17T19:50:41.315Z,32.32
2019-02-17T19:53:10.607Z,32.82
2019-02-17T19:55:39.803Z,32.97
2019-02-17T19:58:08.997Z,33.08
2019-02-17T20:00:38.513Z,33.01
2019-02-17T20:03:26.725Z,33.46
2019-02-17T20:05:58.696Z,33.44
2019-02-17T20:08:27.880Z,33.39
2019-02-17T20:10:57.120Z,33.45
2019-02-17T20:13:26.300Z,33.46
2019-02-17T20:15:55.579Z,33.25
2019-02-17T20:18:24.800Z,33.15
2019-02-17T20:20:54.037Z,33.29
2019-02-17T20:23:23.247Z,33.21
2019-02-17T20:25:52.799Z,33.53
2019-02-17T20:28:32.459Z,33.40
2019-02-17T20:30:52.964Z,33.62
2019-02-17T20:33:22.146Z,33.62
2019-02-17T20:36:01.755Z,33.94
2019-02-17T20:38:22.508Z,34.31
2019-02-17T20:40:51.772Z,34.41
2019-02-17T20:43:21.031Z,34.57
2019-02-17T20:45:50.309Z,34.27
2019-02-17T20:48:19.879Z,34.53
2019-02-17T20:50:49.123Z,34.90
2019-02-17T20:53:18.354Z,35.09
2019-02-17T20:55:47.877Z,35.29
2019-02-17T20:58:17.116Z,35.23
2019-02-17T21:00:46.688Z,35.42
2019-02-17T21:03:15.929Z,35.43
2019-02-17T21:05:45.109Z,35.78
2019-02-17T21:08:14.340Z,35.51
2019-02-17T21:10:43.884Z,35.77
2019-02-17T21:13:13.121Z,36.03
2019-02-17T21:15:42.298Z,35.89
2019-02-17T21:18:11.526Z,36.32
2019-02-17T21:20:40.708Z,36.59
2019-02-17T21:23:09.973Z,37.01
2019-02-17T21:25:39.172Z,37.42
2019-02-17T21:28:08.344Z,37.50
2019-02-17T21:30:37.576Z,37.72
2019-02-17T21:33:06.764Z,38.12
2019-02-17T21:35:35.996Z,38.50
2019-02-17T21:38:05.178Z,38.76
2019-02-17T21:40:34.413Z,38.91
2019-02-17T21:43:03.967Z,39.06
2019-02-17T21:45:33.212Z,38.96
2019-02-17T21:48:02.392Z,38.93
2019-02-17T21:50:31.614Z,38.76
2019-02-17T21:53:00.843Z,39.19
2019-02-17T21:55:30.066Z,39.55
2019-02-17T21:57:59.243Z,39.58
2019-02-17T22:00:28.488Z,39.75
2019-02-17T22:02:57.661Z,39.85
2019-02-17T22:08:01.745Z,39.91
2019-02-17T22:10:31.079Z,39.90
2019-02-17T22:13:00.291Z,39.73
2019-02-17T22:15:29.493Z,39.81
2019-02-17T22:17:59.031Z,39.99
2019-02-17T22:20:28.246Z,39.74
2019-02-17T22:22:57.517Z,39.67
2019-02-17T22:25:26.724Z,39.48
2019-02-17T22:27:56.067Z,39.73
2019-02-17T22:30:25.266Z,39.68
2019-02-17T22:32:54.522Z,39.91
2019-02-17T22:35:24.073Z,39.65
2019-02-17T22:37:53.367Z,40.82
2019-02-17T22:40:22.578Z,40.29
2019-02-17T22:42:51.836Z,39.94
2019-02-17T22:45:21.088Z,39.92
2019-02-17T22:47:50.385Z,39.96
2019-02-17T22:53:21.698Z,39.62
2019-02-17T22:55:51.245Z,39.17
2019-02-17T22:58:20.842Z,38.82
2019-02-17T23:01:10.553Z,38.83
2019-02-17T23:03:39.748Z,39.17
2019-02-17T23:06:09.017Z,39.07
2019-02-17T23:08:38.213Z,38.98
2019-02-17T23:11:07.833Z,38.91
2019-02-17T23:13:37.085Z,38.87
2019-02-17T23:16:06.356Z,39.41
2019-02-17T23:18:35.574Z,39.62
2019-02-17T23:21:05.134Z,40.06
2019-02-17T23:23:34.332Z,39.93
2019-02-17T23:26:03.572Z,39.78
2019-02-17T23:28:32.762Z,39.23
2019-02-17T23:31:02.024Z,39.31
2019-02-17T23:33:31.223Z,39.61
2019-02-17T23:36:00.479Z,39.44
2019-02-17T23:38:29.665Z,39.54
2019-02-17T23:40:58.934Z,39.38
2019-02-17T23:43:28.136Z,39.41
2019-02-17T23:45:57.418Z,39.73
2019-02-17T23:48:26.625Z,39.49
2019-02-17T23:50:55.905Z,40.15
2019-02-17T23:53:25.229Z,39.65
2019-02-17T23:55:54.418Z,39.84
2019-02-17T23:58:23.687Z,39.81
